createdAt,value
2023-04-21T00:01:49.810Z,100.00
2023-04-21T00:04:20.172Z,100.00
2023-04-21T00:06:50.831Z,100.00
2023-04-21T00:09:20.142Z,100.00
2023-04-21T00:11:49.566Z,100.00
2023-04-21T00:14:18.541Z,100.00
2023-04-21T00:16:52.779Z,100.00
2023-04-21T00:19:21.997Z,100.00
2023-04-21T00:21:50.994Z,100.00
2023-04-21T00:24:20.459Z,100.00
2023-04-21T00:26:49.428Z,100.00
2023-04-21T00:29:18.879Z,100.00
2023-04-21T00:31:49.747Z,100.00
2023-04-21T00:34:19.004Z,100.00
2023-04-21T00:36:48.004Z,100.00
2023-04-21T00:39:17.289Z,100.00
2023-04-21T00:41:46.705Z,100.00
2023-04-21T00:44:15.755Z,100.00
2023-04-21T00:46:44.970Z,100.00
2023-04-21T00:49:15.585Z,100.00
2023-04-21T00:51:44.784Z,100.00
2023-04-21T00:54:15.448Z,100.00
2023-04-21T00:56:44.720Z,100.00
2023-04-21T00:59:13.769Z,100.00
2023-04-21T01:01:43.469Z,100.00
2023-04-21T01:04:12.563Z,100.00
2023-04-21T01:06:43.820Z,100.00
2023-04-21T01:09:13.673Z,100.00
2023-04-21T01:11:42.793Z,100.00
2023-04-21T01:14:12.046Z,100.00
2023-04-21T01:16:41.142Z,100.00
2023-04-21T01:19:10.237Z,100.00
2023-04-21T01:21:43.235Z,100.00
2023-04-21T01:24:13.387Z,100.00
2023-04-21T01:26:49.544Z,100.00
2023-04-21T01:29:19.588Z,100.00
2023-04-21T01:31:49.864Z,100.00
2023-04-21T01:34:18.997Z,100.00
2023-04-21T01:36:49.510Z,100.00
2023-04-21T01:39:19.648Z,100.00
2023-04-21T01:41:49.000Z,100.00
2023-04-21T01:44:18.165Z,100.00
2023-04-21T01:46:47.258Z,100.00
2023-04-21T01:49:16.387Z,100.00
2023-04-21T01:51:45.520Z,100.00
2023-04-21T01:54:16.217Z,100.00
2023-04-21T01:56:45.391Z,100.00
2023-04-21T01:59:14.543Z,100.00
2023-04-21T02:01:43.809Z,100.00
2023-04-21T02:04:13.083Z,100.00
2023-04-21T02:06:42.224Z,100.00
2023-04-21T02:09:11.436Z,100.00
2023-04-21T02:11:41.919Z,100.00
2023-04-21T02:14:11.312Z,100.00
2023-04-21T02:16:44.034Z,100.00
2023-04-21T02:19:13.146Z,100.00
2023-04-21T02:21:42.245Z,100.00
2023-04-21T02:24:11.503Z,100.00
2023-04-21T02:26:45.062Z,100.00
2023-04-21T02:29:14.552Z,100.00
2023-04-21T02:31:57.354Z,100.00
2023-04-21T02:34:30.894Z,100.00
2023-04-21T02:37:00.091Z,100.00
2023-04-21T02:39:29.243Z,100.00
2023-04-21T02:41:59.867Z,100.00
2023-04-21T02:44:30.120Z,100.00
2023-04-21T02:46:59.249Z,100.00
2023-04-21T02:49:28.286Z,100.00
2023-04-21T02:51:59.816Z,100.00
2023-04-21T02:54:29.031Z,100.00
2023-04-21T02:56:59.717Z,100.00
2023-04-21T02:59:29.327Z,100.00
2023-04-21T03:02:01.575Z,100.00
2023-04-21T03:04:32.830Z,100.00
2023-04-21T03:07:02.271Z,100.00
2023-04-21T03:09:31.237Z,100.00
2023-04-21T03:12:03.720Z,100.00
2023-04-21T03:14:32.899Z,100.00
2023-04-21T03:17:04.700Z,100.00
2023-04-21T03:19:34.744Z,100.00
2023-04-21T03:22:04.370Z,100.00
2023-04-21T03:24:33.784Z,100.00
2023-04-21T03:27:04.518Z,100.00
2023-04-21T03:29:33.638Z,100.00
2023-04-21T03:32:02.815Z,100.00
2023-04-21T03:34:32.163Z,100.00
2023-04-21T03:37:03.500Z,100.00
2023-04-21T03:39:32.828Z,100.00
2023-04-21T03:42:05.155Z,100.00
2023-04-21T03:44:34.406Z,100.00
2023-04-21T03:47:04.810Z,100.00
2023-04-21T03:49:36.023Z,100.00
2023-04-21T03:52:05.486Z,100.00
2023-04-21T03:54:34.660Z,100.00
2023-04-21T03:57:05.091Z,100.00
2023-04-21T03:59:34.196Z,100.00
2023-04-21T04:02:03.468Z,100.00
2023-04-21T04:04:32.743Z,100.00
2023-04-21T04:07:02.229Z,100.00
2023-04-21T04:09:31.353Z,100.00
2023-04-21T04:12:00.490Z,100.00
2023-04-21T04:14:30.968Z,100.00
2023-04-21T04:17:00.792Z,100.00
2023-04-21T04:19:33.126Z,100.00
2023-04-21T04:22:02.684Z,100.00
2023-04-21T04:24:34.567Z,100.00
2023-04-21T04:27:04.080Z,100.00
2023-04-21T04:29:35.176Z,100.00
2023-04-21T04:32:04.574Z,100.00
2023-04-21T04:34:33.621Z,100.00
2023-04-21T04:37:03.976Z,100.00
2023-04-21T04:39:33.175Z,100.00
2023-04-21T04:42:03.932Z,100.00
2023-04-21T04:44:34.561Z,100.00
2023-04-21T04:47:04.293Z,100.00
2023-04-21T04:49:33.323Z,100.00
2023-04-21T04:52:02.413Z,100.00
2023-04-21T04:54:31.626Z,100.00
2023-04-21T04:57:01.677Z,100.00
2023-04-21T04:59:31.209Z,100.00
2023-04-21T05:02:01.834Z,100.00
2023-04-21T05:04:31.219Z,100.00
2023-04-21T05:07:00.608Z,100.00
2023-04-21T05:09:29.683Z,100.00
2023-04-21T05:11:58.741Z,100.00
2023-04-21T05:14:28.774Z,100.00
2023-04-21T05:16:58.093Z,100.00
2023-04-21T05:19:28.765Z,100.00
2023-04-21T05:22:01.561Z,100.00
2023-04-21T05:24:30.854Z,100.00
2023-04-21T05:27:03.420Z,100.00
2023-04-21T05:29:34.462Z,100.00
2023-04-21T05:32:03.809Z,100.00
2023-04-21T05:34:34.383Z,100.00
2023-04-21T05:37:03.725Z,100.00
2023-04-21T05:39:32.851Z,100.00
2023-04-21T05:42:02.573Z,100.00
2023-04-21T05:44:31.607Z,100.00
2023-04-21T05:47:00.721Z,100.00
2023-04-21T05:49:29.785Z,100.00
2023-04-21T05:52:00.393Z,100.00
2023-04-21T05:54:29.525Z,100.00
2023-04-21T05:56:58.712Z,100.00
2023-04-21T05:59:27.870Z,100.00
2023-04-21T06:01:56.907Z,100.00
2023-04-21T06:04:26.716Z,100.00
2023-04-21T06:06:56.420Z,100.00
2023-04-21T06:09:27.110Z,100.00
2023-04-21T06:11:57.183Z,100.00
2023-04-21T06:14:26.662Z,100.00
2023-04-21T06:16:55.669Z,100.00
2023-04-21T06:19:25.063Z,100.00
2023-04-21T06:21:54.454Z,100.00
2023-04-21T06:24:26.036Z,100.00
2023-04-21T06:26:56.840Z,100.00
2023-04-21T06:29:26.039Z,100.00
2023-04-21T06:31:55.078Z,100.00
2023-04-21T06:34:24.324Z,100.00
2023-04-21T06:37:04.404Z,100.00
2023-04-21T06:39:36.536Z,100.00
2023-04-21T06:42:07.329Z,100.00
2023-04-21T06:44:44.402Z,100.00
2023-04-21T06:47:13.656Z,100.00
2023-04-21T06:49:42.701Z,100.00
2023-04-21T06:52:11.928Z,100.00
2023-04-21T06:54:41.006Z,100.00
2023-04-21T06:57:11.729Z,100.00
2023-04-21T06:59:40.928Z,100.00
2023-04-21T07:02:10.006Z,100.00
2023-04-21T07:04:39.241Z,100.00
2023-04-21T07:07:08.450Z,100.00
2023-04-21T07:09:37.628Z,100.00
2023-04-21T07:12:07.110Z,100.00
2023-04-21T07:14:39.260Z,100.00
2023-04-21T07:17:08.819Z,100.00
2023-04-21T07:19:38.511Z,100.00
2023-04-21T07:22:07.630Z,99.76
2023-04-21T07:24:38.082Z,100.00
2023-04-21T07:27:07.303Z,100.00
2023-04-21T07:29:37.845Z,100.00
2023-04-21T07:32:07.214Z,100.00
2023-04-21T07:34:36.465Z,100.00
2023-04-21T07:37:05.542Z,100.00
2023-04-21T07:39:34.565Z,100.00
2023-04-21T07:42:03.939Z,100.00
2023-04-21T07:44:33.059Z,100.00
2023-04-21T07:47:03.709Z,99.32
2023-04-21T07:49:32.825Z,98.26
2023-04-21T07:52:01.954Z,92.44
2023-04-21T07:54:31.865Z,95.89
2023-04-21T07:57:01.938Z,96.88
2023-04-21T07:59:31.169Z,98.97
2023-04-21T08:02:00.332Z,97.81
2023-04-21T08:04:31.290Z,96.76
2023-04-21T08:07:00.748Z,97.16
2023-04-21T08:09:30.067Z,96.99
2023-04-21T08:11:59.584Z,92.19
2023-04-21T08:14:28.785Z,91.44
2023-04-21T08:16:58.001Z,92.48
2023-04-21T08:19:27.240Z,94.10
2023-04-21T08:21:58.972Z,92.53
2023-04-21T08:24:28.331Z,93.15
2023-04-21T08:26:57.882Z,92.06
2023-04-21T08:29:27.032Z,92.67
2023-04-21T08:31:56.179Z,88.80
2023-04-21T08:34:27.671Z,89.60
2023-04-21T08:36:58.597Z,87.22
2023-04-21T08:39:28.074Z,88.97
2023-04-21T08:41:57.943Z,86.87
2023-04-21T08:44:27.920Z,86.38
2023-04-21T08:46:58.235Z,86.75
2023-04-21T08:49:31.409Z,87.99
2023-04-21T08:52:03.015Z,87.84
2023-04-21T08:54:32.457Z,85.16
2023-04-21T08:57:14.058Z,85.73
2023-04-21T08:59:44.745Z,88.10
2023-04-21T09:02:16.532Z,86.04
2023-04-21T09:05:00.304Z,87.18
2023-04-21T09:07:36.285Z,86.33
2023-04-21T09:10:07.157Z,86.13
2023-04-21T09:12:36.313Z,83.12
2023-04-21T09:15:07.030Z,84.81
2023-04-21T09:17:37.262Z,84.72
2023-04-21T09:20:17.402Z,84.51
2023-04-21T09:22:50.006Z,83.68
2023-04-21T09:25:21.297Z,84.85
2023-04-21T09:27:50.731Z,85.50
2023-04-21T09:30:22.902Z,84.11
2023-04-21T09:32:52.152Z,84.74
2023-04-21T09:35:21.480Z,84.89
2023-04-21T09:37:52.074Z,84.47
2023-04-21T09:40:21.241Z,85.03
2023-04-21T09:42:50.686Z,86.71
2023-04-21T09:47:52.995Z,86.99
2023-04-21T09:50:51.184Z,86.29
2023-04-21T09:53:17.259Z,87.79
2023-04-21T09:55:50.906Z,89.61
2023-04-21T09:58:24.249Z,91.49
2023-04-21T10:00:55.259Z,88.52
2023-04-21T10:03:28.861Z,89.56
2023-04-21T10:05:58.214Z,87.59
2023-04-21T10:08:29.448Z,88.66
2023-04-21T10:10:59.299Z,89.30
2023-04-21T10:13:29.036Z,88.61
2023-04-21T10:16:09.055Z,86.43
2023-04-21T10:18:39.699Z,83.26
2023-04-21T10:21:10.255Z,80.09
2023-04-21T10:23:43.785Z,76.12
2023-04-21T10:26:16.547Z,75.03
2023-04-21T10:28:53.816Z,77.96
2023-04-21T10:31:52.563Z,78.00
2023-04-21T10:34:23.879Z,78.78
2023-04-21T10:37:15.699Z,79.08
2023-04-21T10:39:57.251Z,78.94
2023-04-21T10:42:35.161Z,78.34
2023-04-21T10:45:13.964Z,76.44
2023-04-21T10:47:45.676Z,78.52
2023-04-21T10:50:20.637Z,84.99
2023-04-21T10:52:57.545Z,86.74
2023-04-21T10:55:36.154Z,86.62
2023-04-21T10:58:07.535Z,88.52
2023-04-21T11:00:39.592Z,87.38
2023-04-21T11:03:11.406Z,89.28
2023-04-21T11:05:42.901Z,85.75
2023-04-21T11:08:14.837Z,84.54
2023-04-21T11:10:57.202Z,86.89
2023-04-21T11:13:27.480Z,90.95
2023-04-21T11:16:08.444Z,94.58
2023-04-21T11:18:45.271Z,95.79
2023-04-21T11:21:21.789Z,96.40
2023-04-21T11:23:53.588Z,96.62
2023-04-21T11:26:34.849Z,97.79
2023-04-21T11:29:06.315Z,99.13
2023-04-21T11:31:36.678Z,100.00
2023-04-21T11:34:07.844Z,99.43
2023-04-21T11:36:37.677Z,100.00
2023-04-21T11:39:10.309Z,100.00
2023-04-21T11:41:43.394Z,98.12
2023-04-21T11:44:14.013Z,95.89
2023-04-21T11:46:48.066Z,97.33
2023-04-21T11:49:18.771Z,96.81
2023-04-21T11:51:47.854Z,95.14
2023-04-21T11:54:22.244Z,94.63
2023-04-21T11:56:56.281Z,94.98
2023-04-21T11:59:26.631Z,93.65
2023-04-21T12:01:57.443Z,93.25
2023-04-21T12:04:27.686Z,94.29
2023-04-21T12:06:59.475Z,94.22
2023-04-21T12:09:29.686Z,92.56
2023-04-21T12:12:01.986Z,91.91
2023-04-21T12:14:35.010Z,90.54
2023-04-21T12:17:04.061Z,88.26
2023-04-21T12:19:39.380Z,89.73
2023-04-21T12:22:12.313Z,90.13
2023-04-21T12:24:42.375Z,91.07
2023-04-21T12:27:13.776Z,91.94
2023-04-21T12:29:43.416Z,90.99
2023-04-21T12:32:12.791Z,90.57
2023-04-21T12:34:42.086Z,89.82
2023-04-21T12:37:11.361Z,90.65
2023-04-21T12:39:40.651Z,89.49
2023-04-21T12:42:09.950Z,90.78
2023-04-21T12:44:41.241Z,91.41
2023-04-21T12:47:10.897Z,90.34
2023-04-21T12:49:40.112Z,90.96
2023-04-21T12:52:10.139Z,88.84
2023-04-21T12:54:39.570Z,90.20
2023-04-21T12:57:08.730Z,89.37
2023-04-21T12:59:37.953Z,87.93
2023-04-21T13:02:08.718Z,87.18
2023-04-21T13:04:39.395Z,88.95
2023-04-21T13:07:08.936Z,85.26
2023-04-21T13:09:38.032Z,83.64
2023-04-21T13:12:07.355Z,81.38
2023-04-21T13:14:36.380Z,81.58
2023-04-21T13:17:08.254Z,77.35
2023-04-21T13:19:41.240Z,76.30
2023-04-21T13:22:10.635Z,72.17
2023-04-21T13:24:39.729Z,69.82
2023-04-21T13:27:08.919Z,69.39
2023-04-21T13:29:38.210Z,67.46
2023-04-21T13:32:09.046Z,68.72
2023-04-21T13:34:38.273Z,68.75
2023-04-21T13:37:12.790Z,70.84
2023-04-21T13:39:42.106Z,69.09
2023-04-21T13:42:11.724Z,68.28
2023-04-21T13:44:41.029Z,69.98
2023-04-21T13:47:10.806Z,70.00
2023-04-21T13:49:40.386Z,68.94
2023-04-21T13:52:11.249Z,69.04
2023-04-21T13:54:40.512Z,69.08
2023-04-21T13:57:09.909Z,67.71
2023-04-21T13:59:39.065Z,68.36
2023-04-21T14:02:08.935Z,69.59
2023-04-21T14:04:38.743Z,72.39
2023-04-21T14:07:09.227Z,78.33
2023-04-21T14:09:39.726Z,79.93
2023-04-21T14:12:08.986Z,78.79
2023-04-21T14:14:39.111Z,80.83
2023-04-21T14:17:09.313Z,80.62
2023-04-21T14:19:38.483Z,81.08
2023-04-21T14:22:07.629Z,80.04
2023-04-21T14:24:37.077Z,79.94
2023-04-21T14:27:07.750Z,81.75
2023-04-21T14:29:37.094Z,81.72
2023-04-21T14:32:06.540Z,81.53
2023-04-21T14:34:35.975Z,81.37
2023-04-21T14:37:08.453Z,81.41
2023-04-21T14:39:37.614Z,82.07
2023-04-21T14:42:08.411Z,80.50
2023-04-21T14:44:37.581Z,80.36
2023-04-21T14:47:10.323Z,79.86
2023-04-21T14:49:40.719Z,81.11
2023-04-21T14:52:10.262Z,80.17
2023-04-21T14:54:39.469Z,81.16
2023-04-21T14:57:18.700Z,81.91
2023-04-21T14:59:51.798Z,81.63
2023-04-21T15:02:22.160Z,81.93
2023-04-21T15:04:52.213Z,82.95
2023-04-21T15:07:24.000Z,83.25
2023-04-21T15:09:55.734Z,83.32
2023-04-21T15:12:26.593Z,85.22
2023-04-21T15:14:55.827Z,82.59
2023-04-21T15:17:25.426Z,82.66
2023-04-21T15:19:54.896Z,84.34
2023-04-21T15:22:24.216Z,83.47
2023-04-21T15:24:54.526Z,82.98
2023-04-21T15:27:25.596Z,84.17
2023-04-21T15:29:55.145Z,84.75
2023-04-21T15:32:24.438Z,83.61
2023-04-21T15:34:53.811Z,84.13
2023-04-21T15:37:25.537Z,85.88
2023-04-21T15:39:55.248Z,85.75
2023-04-21T15:42:25.859Z,85.54
2023-04-21T15:44:55.966Z,86.35
2023-04-21T15:47:25.312Z,86.83
2023-04-21T15:49:55.264Z,85.65
2023-04-21T15:52:24.644Z,85.36
2023-04-21T15:54:53.963Z,85.79
2023-04-21T15:57:24.517Z,87.06
2023-04-21T15:59:55.394Z,87.30
2023-04-21T16:02:25.093Z,87.84
2023-04-21T16:04:54.985Z,88.42
2023-04-21T16:07:24.652Z,88.18
2023-04-21T16:09:54.340Z,89.16
2023-04-21T16:12:23.717Z,90.89
2023-04-21T16:14:59.414Z,88.99
2023-04-21T16:17:35.810Z,86.22
2023-04-21T16:20:06.560Z,86.81
2023-04-21T16:22:36.487Z,85.97
2023-04-21T16:25:06.288Z,85.76
2023-04-21T16:27:35.922Z,84.89
2023-04-21T16:30:08.601Z,85.19
2023-04-21T16:32:38.112Z,85.01
2023-04-21T16:35:09.250Z,85.17
2023-04-21T16:37:42.930Z,85.88
2023-04-21T16:40:13.766Z,86.64
2023-04-21T16:42:43.148Z,83.22
2023-04-21T16:45:14.406Z,83.07
2023-04-21T16:47:43.987Z,81.57
2023-04-21T16:50:13.792Z,82.15
2023-04-21T16:52:43.032Z,81.82
2023-04-21T16:55:12.451Z,80.30
2023-04-21T16:57:41.938Z,79.48
2023-04-21T17:00:12.290Z,84.24
2023-04-21T17:02:43.305Z,88.01
2023-04-21T17:05:15.787Z,91.20
2023-04-21T17:07:45.326Z,91.00
2023-04-21T17:10:14.886Z,91.24
2023-04-21T17:12:44.300Z,93.58
2023-04-21T17:15:13.797Z,94.64
2023-04-21T17:17:47.310Z,97.51
2023-04-21T17:20:16.869Z,99.59
2023-04-21T17:22:46.589Z,100.00
2023-04-21T17:25:15.993Z,100.00
2023-04-21T17:27:46.606Z,100.00
2023-04-21T17:30:16.264Z,100.00
2023-04-21T17:32:47.007Z,100.00
2023-04-21T17:35:16.971Z,100.00
2023-04-21T17:37:46.380Z,100.00
2023-04-21T17:40:15.690Z,100.00
2023-04-21T17:42:44.924Z,100.00
2023-04-21T17:45:14.314Z,100.00
2023-04-21T17:47:44.084Z,100.00
2023-04-21T17:50:14.797Z,100.00
2023-04-21T17:52:44.096Z,100.00
2023-04-21T17:55:15.868Z,100.00
2023-04-21T17:57:45.180Z,100.00
2023-04-21T18:00:17.931Z,100.00
2023-04-21T18:02:47.126Z,100.00
2023-04-21T18:05:18.174Z,100.00
2023-04-21T18:07:47.488Z,100.00
2023-04-21T18:10:16.666Z,100.00
2023-04-21T18:12:45.900Z,100.00
2023-04-21T18:15:15.369Z,100.00
2023-04-21T18:17:44.692Z,100.00
2023-04-21T18:20:15.321Z,100.00
2023-04-21T18:22:46.910Z,100.00
2023-04-21T18:25:18.689Z,100.00
2023-04-21T18:27:53.809Z,100.00
2023-04-21T18:30:23.094Z,100.00
2023-04-21T18:32:52.541Z,100.00
2023-04-21T18:35:22.010Z,100.00
2023-04-21T18:37:52.626Z,100.00
2023-04-21T18:40:22.143Z,100.00
2023-04-21T18:42:51.516Z,100.00
2023-04-21T18:45:20.957Z,100.00
2023-04-21T18:47:50.303Z,100.00
2023-04-21T18:50:19.780Z,100.00
2023-04-21T18:52:49.382Z,100.00
2023-04-21T18:55:20.685Z,100.00
2023-04-21T18:57:50.180Z,100.00
2023-04-21T19:00:19.602Z,100.00
2023-04-21T19:02:51.571Z,100.00
2023-04-21T19:05:21.366Z,100.00
2023-04-21T19:07:50.693Z,100.00
2023-04-21T19:10:22.025Z,100.00
2023-04-21T19:12:51.651Z,100.00
2023-04-21T19:15:21.607Z,100.00
2023-04-21T19:17:51.086Z,100.00
2023-04-21T19:20:20.474Z,100.00
2023-04-21T19:22:49.847Z,100.00
2023-04-21T19:25:20.682Z,100.00
2023-04-21T19:27:50.124Z,100.00
2023-04-21T19:30:19.343Z,100.00
2023-04-21T19:32:48.544Z,100.00
2023-04-21T19:35:17.983Z,100.00
2023-04-21T19:37:47.481Z,100.00
2023-04-21T19:40:16.777Z,100.00
2023-04-21T19:42:47.393Z,100.00
2023-04-21T19:45:16.809Z,100.00
2023-04-21T19:47:48.923Z,100.00
2023-04-21T19:50:18.100Z,100.00
2023-04-21T19:52:47.986Z,100.00
2023-04-21T19:55:17.462Z,100.00
2023-04-21T19:57:48.269Z,100.00
2023-04-21T20:00:18.515Z,100.00
2023-04-21T20:02:47.904Z,100.00
2023-04-21T20:05:17.309Z,100.00
2023-04-21T20:07:47.160Z,100.00
2023-04-21T20:10:16.619Z,100.00
2023-04-21T20:12:46.147Z,100.00
2023-04-21T20:15:17.283Z,100.00
2023-04-21T20:17:47.831Z,100.00
2023-04-21T20:20:17.787Z,100.00
2023-04-21T20:22:48.195Z,100.00
2023-04-21T20:25:17.773Z,100.00
2023-04-21T20:27:47.066Z,100.00
2023-04-21T20:30:17.809Z,100.00
2023-04-21T20:32:47.088Z,100.00
2023-04-21T20:35:17.244Z,100.00
2023-04-21T20:37:46.434Z,100.00
2023-04-21T20:40:16.114Z,100.00
2023-04-21T20:42:45.804Z,100.00
2023-04-21T20:45:17.605Z,100.00
2023-04-21T20:47:46.958Z,100.00
2023-04-21T20:50:16.055Z,100.00
2023-04-21T20:52:45.118Z,100.00
2023-04-21T20:55:14.656Z,100.00
2023-04-21T20:57:43.724Z,100.00
2023-04-21T21:00:14.044Z,100.00
2023-04-21T21:02:44.903Z,100.00
2023-04-21T21:05:14.364Z,100.00
2023-04-21T21:07:43.550Z,100.00
2023-04-21T21:10:12.955Z,100.00
2023-04-21T21:12:42.106Z,100.00
2023-04-21T21:15:12.034Z,100.00
2023-04-21T21:17:41.380Z,100.00
2023-04-21T21:20:13.094Z,100.00
2023-04-21T21:22:43.357Z,100.00
2023-04-21T21:25:12.573Z,100.00
2023-04-21T21:27:41.684Z,100.00
2023-04-21T21:30:11.568Z,100.00
2023-04-21T21:32:40.821Z,100.00
2023-04-21T21:35:12.216Z,100.00
2023-04-21T21:37:44.244Z,100.00
2023-04-21T21:40:13.986Z,100.00
2023-04-21T21:42:43.253Z,100.00
2023-04-21T21:45:13.418Z,100.00
2023-04-21T21:47:45.408Z,100.00
2023-04-21T21:50:16.772Z,100.00
2023-04-21T21:52:45.900Z,100.00
2023-04-21T21:55:15.063Z,100.00
2023-04-21T21:57:44.298Z,100.00
2023-04-21T22:00:14.597Z,100.00
2023-04-21T22:02:44.231Z,100.00
2023-04-21T22:05:14.113Z,100.00
2023-04-21T22:07:45.738Z,100.00
2023-04-21T22:10:15.141Z,100.00
2023-04-21T22:12:44.366Z,100.00
2023-04-21T22:15:13.608Z,100.00
2023-04-21T22:17:43.842Z,100.00
2023-04-21T22:20:13.567Z,100.00
2023-04-21T22:22:43.007Z,100.00
2023-04-21T22:25:13.585Z,100.00
2023-04-21T22:27:42.682Z,100.00
2023-04-21T22:30:12.909Z,100.00
2023-04-21T22:32:42.156Z,100.00
2023-04-21T22:35:11.308Z,100.00
2023-04-21T22:37:40.433Z,100.00
2023-04-21T22:40:11.294Z,100.00
2023-04-21T22:42:42.240Z,100.00
2023-04-21T22:45:12.711Z,100.00
2023-04-21T22:47:42.172Z,100.00
2023-04-21T22:50:15.113Z,100.00
2023-04-21T22:52:44.373Z,100.00
2023-04-21T22:55:13.573Z,100.00
2023-04-21T22:57:44.725Z,100.00
2023-04-21T23:00:14.510Z,100.00
2023-04-21T23:02:43.793Z,100.00
2023-04-21T23:05:13.092Z,100.00
2023-04-21T23:07:42.074Z,100.00
2023-04-21T23:10:11.913Z,100.00
2023-04-21T23:12:41.364Z,100.00
2023-04-21T23:15:12.745Z,100.00
2023-04-21T23:17:42.885Z,100.00
2023-04-21T23:20:12.988Z,100.00
2023-04-21T23:22:42.508Z,100.00
2023-04-21T23:25:12.067Z,100.00
2023-04-21T23:27:41.352Z,100.00
2023-04-21T23:30:13.831Z,100.00
2023-04-21T23:32:43.894Z,100.00
2023-04-21T23:35:13.247Z,100.00
2023-04-21T23:37:42.299Z,100.00
2023-04-21T23:40:12.826Z,100.00
2023-04-21T23:42:42.134Z,100.00
2023-04-21T23:45:18.480Z,100.00
2023-04-21T23:47:47.658Z,100.00
2023-04-21T23:50:16.910Z,100.00
2023-04-21T23:52:46.143Z,100.00
2023-04-21T23:55:15.355Z,100.00
2023-04-21T23:57:47.101Z,100.00
